ADDS METAR Data INFO
IDs: Format: Raw Decoded Include TAF

Data at: 1119 UTC 21 Feb 2018

PABE 201453Z AUTO 15006KT 4SM BR CLR M05/M06 A3047 RMK AO2 SLP321 I1001 I3001 T10501061 50005 TSNO
PABE 201353Z AUTO 18007KT 6SM BR CLR M04/M06 A3051 RMK AO2 SLP333 I1000 T10391056 TSNO
PABE 201253Z 20011KT 6SM BR CLR M03/M04 A3051 RMK AO2 SLP334 T10281039
PABE 201153Z 18009KT 5SM BR CLR M03/M04 A3046 RMK AO2 SLP315 70001 T10281039 10006 21028 53022
PABE 201053Z 20008KT 5SM BR CLR M02/M03 A3043 RMK AO2 SLP306 T10221028
PABE 201028Z 19008KT 6SM BR SCT022 M02/M03 A3042 RMK AO2 T10171028
PABE 200953Z 20009KT 5SM BR BKN019 M01/M02 A3039 RMK AO2 SLP293 T10111022
PABE 200950Z 19009KT 5SM BR BKN017 M01/M02 A3039 RMK AO2
PABE 200853Z AUTO 20010KT 6SM BR CLR M01/M01 A3035 RMK AO2 SLP278 T10061011 400221028 53026 TSNO
PABE 200834Z AUTO 20010KT 5SM BR SCT026 00/M01 A3034 RMK AO2 T00001011 TSNO
PABE 200819Z AUTO 20012KT 5SM BR BKN028 00/M01 A3032 RMK AO2 T00001006 TSNO
PABE 200753Z AUTO 20014KT 5SM BR OVC033 00/M01 A3031 RMK AO2 SLP265 T00001006 TSNO
PABE 200653Z 19012KT 5SM BR SCT004 OVC037 01/00 A3027 RMK AO2 SLP253 T00060000
PABE 200553Z 20016KT 4SM BR OVC003 01/01 A3024 RMK AO2 UPE0454RAB0454E0455 SLP242 P0000 60001 T00060006 10011 20006 53031
PABE 200500Z 20016G24KT 9SM OVC004 01/01 A3021 RMK AO2 UPE0454RAB0454E0455 P0000 T00110006
PABE 200453Z 20019KT 1 3/4SM UP BR OVC004 01/01 A3020 RMK AO2 PK WND 20026/0437 RAB0354E19UPB49SNE49 SLP229 P0000 T00110006
PABE 200353Z 18018KT 1 3/4SM -SN BR OVC004 01/01 A3017 RMK AO2 PK WND 17027/0304 SNB50 SLP219 P0000 T00110006
PABE 200341Z 17019KT 1 1/4SM R19R/6000VP6000FT BR OVC004 01/01 A3016 RMK AO2 PK WND 17027/0304 T00110006
PABE 200253Z 17021KT 2 1/2SM BR OVC007 01/01 A3015 RMK AO2 PK WND 16030/0241 UPB0154E00B26E27B51E53SNB40E51 SLP210 P0001 60001 T00110006 50003
PABE 200248Z 17022G30KT 1 3/4SM -SN BR OVC007 01/01 A3015 RMK AO2 PK WND 16030/0241 UPB0154E00B26E27SNB40 P0000
PABE 200240Z 17022G29KT 2SM -SN BR OVC007 01/00 A3014 RMK AO2 PK WND 17030/0218 UPB0154E00B26E27SNB40 P0000 T00110000
PABE 200153Z 17023KT 10SM OVC011 01/00 A3014 RMK AO2 PK WND 17032/0114 SLP207 T00110000
PABE 200053Z 17022G30KT 4SM BR OVC012 01/M01 A3014 RMK AO2 PK WND 17030/0023 SNE39 SLP207 P0000 T00111006
PABE 200048Z 17022G29KT 6SM BR OVC014 01/M01 A3014 RMK AO2 PK WND 17030/0023 SNE39 P0000
PABE 200008Z 17023G30KT 4SM -SN BR BKN025 OVC032 01/M01 A3013 RMK AO2 PK WND 17030/2358 P0000 T00111006
PABE 192353Z 17026G33KT 2SM SN BKN025 OVC029 02/M01 A3013 RMK AO2 PK WND 16033/2350 RAB2254E09UPB2255E16SNB33 SLP205 P0000 60000 T00171011 10022 21011 50006
PABE 192345Z 17023G33KT 2SM SN BKN029 OVC036 02/M02 A3013 RMK AO2 PK WND 17033/2345 RAB2254E09UPB2255E16SNB33 P0000 T00171017